KINW

Winslow-Lindbergh Regional Airport

Winslow, Arizona, USA
METAR KINW 201456Z AUTO VRB06KT 10SM CLR M06/M13 A2997 RMK AO2 SLP171 T10561133 53017
Observed Flight Rules
Feb-20 @ 14:56 UTC (2 hours ago) Visual Flight Rules
Wind Visibility Clouds
Variable at 6 knots 10 miles
  • Clear skies
Temperatures Readings
Current -6°C / 21°F
Dewpoint -13°C / 9°F
Humidity 58%
Altimeter 29.97" Hg
Pressure 1017.1 hPa
Elevation 1490
METAR KINW 201456Z AUTO VRB06KT 10SM CLR M06/M13 A2997 RMK AO2 SLP171 T10561133 53017
Observed Flight Rules
Feb-20 @ 14:56 UTC
(2 hours ago)
VFR
Wind Visibility
Variable at 6 knots 10 miles
Clouds
  • Clear skies
Temperature Dewpoint
-6°C / 21°F -13°C / 9°F
Humidity Altimeter Pressure
58% 29.97" Hg 1017.1 hPa